sensor_id;sensor_type;location;lat;lon;timestamp;temperature;humidity
68257;DHT22;55069;51.568;4.656;2023-08-31T00:00:16;11.92;93.39
68257;DHT22;55069;51.568;4.656;2023-08-31T00:02:41;11.90;93.35
68257;DHT22;55069;51.568;4.656;2023-08-31T00:05:07;11.87;93.41
68257;DHT22;55069;51.568;4.656;2023-08-31T00:07:33;11.87;93.39
68257;DHT22;55069;51.568;4.656;2023-08-31T00:09:58;11.86;93.67
68257;DHT22;55069;51.568;4.656;2023-08-31T00:12:25;11.83;93.51
68257;DHT22;55069;51.568;4.656;2023-08-31T00:14:51;11.82;93.63
68257;DHT22;55069;51.568;4.656;2023-08-31T00:17:16;11.76;93.62
68257;DHT22;55069;51.568;4.656;2023-08-31T00:19:43;11.69;93.70
68257;DHT22;55069;51.568;4.656;2023-08-31T00:22:09;11.71;93.78
68257;DHT22;55069;51.568;4.656;2023-08-31T00:24:34;11.72;93.74
68257;DHT22;55069;51.568;4.656;2023-08-31T00:27:02;11.68;93.69
68257;DHT22;55069;51.568;4.656;2023-08-31T00:29:29;11.71;93.88
68257;DHT22;55069;51.568;4.656;2023-08-31T00:31:55;11.69;93.81
68257;DHT22;55069;51.568;4.656;2023-08-31T00:34:21;11.62;93.89
68257;DHT22;55069;51.568;4.656;2023-08-31T00:36:47;11.66;93.89
68257;DHT22;55069;51.568;4.656;2023-08-31T00:39:14;11.69;94.05
68257;DHT22;55069;51.568;4.656;2023-08-31T00:41:41;11.69;94.00
68257;DHT22;55069;51.568;4.656;2023-08-31T00:44:06;11.68;94.11
68257;DHT22;55069;51.568;4.656;2023-08-31T00:46:33;11.69;94.05
68257;DHT22;55069;51.568;4.656;2023-08-31T00:48:59;11.65;93.94
68257;DHT22;55069;51.568;4.656;2023-08-31T00:51:26;11.58;94.09
68257;DHT22;55069;51.568;4.656;2023-08-31T00:53:52;11.61;94.13
68257;DHT22;55069;51.568;4.656;2023-08-31T00:56:20;11.58;94.12
68257;DHT22;55069;51.568;4.656;2023-08-31T00:58:46;11.62;94.16
68257;DHT22;55069;51.568;4.656;2023-08-31T01:01:34;11.59;94.18
68257;DHT22;55069;51.568;4.656;2023-08-31T01:15:09;11.65;94.11
68257;DHT22;55069;51.568;4.656;2023-08-31T01:17:52;11.69;93.88
68257;DHT22;55069;51.568;4.656;2023-08-31T01:20:31;11.65;93.83
68257;DHT22;55069;51.568;4.656;2023-08-31T01:23:02;11.64;93.82
68257;DHT22;55069;51.568;4.656;2023-08-31T01:25:29;11.66;93.71
68257;DHT22;55069;51.568;4.656;2023-08-31T01:27:56;11.62;93.71
68257;DHT22;55069;51.568;4.656;2023-08-31T01:30:22;11.61;93.64
68257;DHT22;55069;51.568;4.656;2023-08-31T01:32:50;11.59;93.74
68257;DHT22;55069;51.568;4.656;2023-08-31T01:35:18;11.59;93.73
68257;DHT22;55069;51.568;4.656;2023-08-31T01:37:51;11.58;93.80
68257;DHT22;55069;51.568;4.656;2023-08-31T01:42:50;11.57;94.03
68257;DHT22;55069;51.568;4.656;2023-08-31T01:45:19;11.50;94.15
68257;DHT22;55069;51.568;4.656;2023-08-31T01:47:46;11.48;94.09
68257;DHT22;55069;51.568;4.656;2023-08-31T01:50:12;11.51;94.11
68257;DHT22;55069;51.568;4.656;2023-08-31T01:52:39;11.42;94.22
68257;DHT22;55069;51.568;4.656;2023-08-31T01:55:05;11.48;94.28
68257;DHT22;55069;51.568;4.656;2023-08-31T01:57:32;11.52;94.30
68257;DHT22;55069;51.568;4.656;2023-08-31T02:00:12;11.48;94.32
68257;DHT22;55069;51.568;4.656;2023-08-31T02:02:40;11.45;94.30
68257;DHT22;55069;51.568;4.656;2023-08-31T02:05:07;11.42;94.31
68257;DHT22;55069;51.568;4.656;2023-08-31T02:07:33;11.47;94.23
68257;DHT22;55069;51.568;4.656;2023-08-31T02:09:58;11.50;94.22
68257;DHT22;55069;51.568;4.656;2023-08-31T02:12:24;11.42;94.09
68257;DHT22;55069;51.568;4.656;2023-08-31T02:14:50;11.44;94.15
68257;DHT22;55069;51.568;4.656;2023-08-31T02:17:15;11.44;93.96
68257;DHT22;55069;51.568;4.656;2023-08-31T02:19:41;11.45;94.08
68257;DHT22;55069;51.568;4.656;2023-08-31T02:22:06;11.42;94.23
68257;DHT22;55069;51.568;4.656;2023-08-31T02:24:32;11.42;94.22
68257;DHT22;55069;51.568;4.656;2023-08-31T02:26:57;11.37;94.23
68257;DHT22;55069;51.568;4.656;2023-08-31T02:29:25;11.37;94.28
68257;DHT22;55069;51.568;4.656;2023-08-31T02:31:51;11.37;94.43
68257;DHT22;55069;51.568;4.656;2023-08-31T02:34:16;11.37;94.49
68257;DHT22;55069;51.568;4.656;2023-08-31T02:36:42;11.34;94.52
68257;DHT22;55069;51.568;4.656;2023-08-31T02:39:09;11.32;94.50
68257;DHT22;55069;51.568;4.656;2023-08-31T02:41:36;11.35;94.40
68257;DHT22;55069;51.568;4.656;2023-08-31T02:44:03;11.41;94.50
68257;DHT22;55069;51.568;4.656;2023-08-31T02:46:30;11.39;94.71
68257;DHT22;55069;51.568;4.656;2023-08-31T02:48:56;11.35;94.62
68257;DHT22;55069;51.568;4.656;2023-08-31T02:51:21;11.37;94.65
68257;DHT22;55069;51.568;4.656;2023-08-31T02:53:47;11.37;94.64
68257;DHT22;55069;51.568;4.656;2023-08-31T02:56:12;11.41;94.93
68257;DHT22;55069;51.568;4.656;2023-08-31T02:58:38;11.35;94.94
68257;DHT22;55069;51.568;4.656;2023-08-31T03:01:10;11.38;94.95
68257;DHT22;55069;51.568;4.656;2023-08-31T03:03:39;11.37;95.03
68257;DHT22;55069;51.568;4.656;2023-08-31T03:06:07;11.31;95.00
68257;DHT22;55069;51.568;4.656;2023-08-31T03:08:33;11.37;95.09
68257;DHT22;55069;51.568;4.656;2023-08-31T03:10:59;11.32;95.26
68257;DHT22;55069;51.568;4.656;2023-08-31T03:13:24;11.30;95.33
68257;DHT22;55069;51.568;4.656;2023-08-31T03:15:50;11.30;95.36
68257;DHT22;55069;51.568;4.656;2023-08-31T03:18:16;11.30;95.39
68257;DHT22;55069;51.568;4.656;2023-08-31T03:20:41;11.26;95.33
68257;DHT22;55069;51.568;4.656;2023-08-31T03:23:07;11.23;95.47
68257;DHT22;55069;51.568;4.656;2023-08-31T03:25:32;11.26;95.51
68257;DHT22;55069;51.568;4.656;2023-08-31T03:27:58;11.26;95.39
68257;DHT22;55069;51.568;4.656;2023-08-31T03:30:23;11.26;95.48
68257;DHT22;55069;51.568;4.656;2023-08-31T03:32:49;11.24;95.58
68257;DHT22;55069;51.568;4.656;2023-08-31T03:35:14;11.24;95.49
68257;DHT22;55069;51.568;4.656;2023-08-31T03:37:40;11.28;95.59
68257;DHT22;55069;51.568;4.656;2023-08-31T03:40:06;11.41;95.74
68257;DHT22;55069;51.568;4.656;2023-08-31T03:42:33;11.37;95.65
68257;DHT22;55069;51.568;4.656;2023-08-31T03:44:59;11.37;95.51
68257;DHT22;55069;51.568;4.656;2023-08-31T03:47:25;11.34;95.78
68257;DHT22;55069;51.568;4.656;2023-08-31T03:49:50;11.35;95.75
68257;DHT22;55069;51.568;4.656;2023-08-31T03:52:16;11.30;95.70
68257;DHT22;55069;51.568;4.656;2023-08-31T03:54:41;11.27;95.72
68257;DHT22;55069;51.568;4.656;2023-08-31T03:57:07;11.23;95.69
68257;DHT22;55069;51.568;4.656;2023-08-31T03:59:32;11.28;95.67
68257;DHT22;55069;51.568;4.656;2023-08-31T04:01:58;11.30;95.56
68257;DHT22;55069;51.568;4.656;2023-08-31T04:04:26;11.26;95.63
68257;DHT22;55069;51.568;4.656;2023-08-31T04:06:51;11.26;95.77
68257;DHT22;55069;51.568;4.656;2023-08-31T04:09:17;11.26;95.63
68257;DHT22;55069;51.568;4.656;2023-08-31T04:11:44;11.27;95.47
68257;DHT22;55069;51.568;4.656;2023-08-31T04:14:09;11.23;95.65
68257;DHT22;55069;51.568;4.656;2023-08-31T04:16:35;11.26;95.60
68257;DHT22;55069;51.568;4.656;2023-08-31T04:19:00;11.26;95.60
68257;DHT22;55069;51.568;4.656;2023-08-31T04:21:26;11.21;95.70
68257;DHT22;55069;51.568;4.656;2023-08-31T04:23:51;11.18;95.66
68257;DHT22;55069;51.568;4.656;2023-08-31T04:26:17;11.17;95.64
68257;DHT22;55069;51.568;4.656;2023-08-31T04:28:43;11.17;95.65
68257;DHT22;55069;51.568;4.656;2023-08-31T04:31:09;11.16;95.72
68257;DHT22;55069;51.568;4.656;2023-08-31T04:33:36;11.20;95.67
68257;DHT22;55069;51.568;4.656;2023-08-31T04:36:01;11.18;95.64
68257;DHT22;55069;51.568;4.656;2023-08-31T04:38:29;11.14;95.52
68257;DHT22;55069;51.568;4.656;2023-08-31T04:40:58;11.17;95.59
68257;DHT22;55069;51.568;4.656;2023-08-31T04:43:23;11.11;95.51
68257;DHT22;55069;51.568;4.656;2023-08-31T04:45:50;11.11;95.52
68257;DHT22;55069;51.568;4.656;2023-08-31T04:48:16;11.13;95.54
68257;DHT22;55069;51.568;4.656;2023-08-31T04:50:41;11.13;95.56
68257;DHT22;55069;51.568;4.656;2023-08-31T04:53:07;11.10;95.53
68257;DHT22;55069;51.568;4.656;2023-08-31T04:55:32;11.11;95.51
68257;DHT22;55069;51.568;4.656;2023-08-31T04:57:58;11.09;95.53
68257;DHT22;55069;51.568;4.656;2023-08-31T05:00:23;11.10;95.54
68257;DHT22;55069;51.568;4.656;2023-08-31T05:02:49;11.11;95.68
68257;DHT22;55069;51.568;4.656;2023-08-31T05:05:15;11.14;95.58
68257;DHT22;55069;51.568;4.656;2023-08-31T05:07:40;11.21;95.81
68257;DHT22;55069;51.568;4.656;2023-08-31T05:10:06;11.18;95.78
68257;DHT22;55069;51.568;4.656;2023-08-31T05:12:32;11.27;95.74
68257;DHT22;55069;51.568;4.656;2023-08-31T05:14:58;11.27;95.75
68257;DHT22;55069;51.568;4.656;2023-08-31T05:17:23;11.21;95.87
68257;DHT22;55069;51.568;4.656;2023-08-31T05:19:49;11.21;95.66
68257;DHT22;55069;51.568;4.656;2023-08-31T05:22:15;11.24;95.64
68257;DHT22;55069;51.568;4.656;2023-08-31T05:24:41;11.24;95.71
68257;DHT22;55069;51.568;4.656;2023-08-31T05:27:06;11.30;95.82
68257;DHT22;55069;51.568;4.656;2023-08-31T05:29:32;11.27;95.98
68257;DHT22;55069;51.568;4.656;2023-08-31T05:31:57;11.27;95.83
68257;DHT22;55069;51.568;4.656;2023-08-31T05:34:24;11.28;96.19
68257;DHT22;55069;51.568;4.656;2023-08-31T05:36:50;11.32;96.16
68257;DHT22;55069;51.568;4.656;2023-08-31T05:39:16;11.34;96.00
68257;DHT22;55069;51.568;4.656;2023-08-31T05:41:43;11.37;96.28
68257;DHT22;55069;51.568;4.656;2023-08-31T05:44:09;11.42;96.22
68257;DHT22;55069;51.568;4.656;2023-08-31T05:46:35;11.47;96.35
68257;DHT22;55069;51.568;4.656;2023-08-31T05:49:00;11.42;96.18
68257;DHT22;55069;51.568;4.656;2023-08-31T05:51:26;11.57;96.25
68257;DHT22;55069;51.568;4.656;2023-08-31T05:53:52;11.55;96.32
68257;DHT22;55069;51.568;4.656;2023-08-31T05:56:19;11.55;96.20
68257;DHT22;55069;51.568;4.656;2023-08-31T05:58:45;11.62;96.35
68257;DHT22;55069;51.568;4.656;2023-08-31T06:01:10;11.62;96.23
68257;DHT22;55069;51.568;4.656;2023-08-31T06:03:37;11.64;96.35
68257;DHT22;55069;51.568;4.656;2023-08-31T06:06:02;11.72;96.36
68257;DHT22;55069;51.568;4.656;2023-08-31T06:08:29;11.78;96.33
68257;DHT22;55069;51.568;4.656;2023-08-31T06:10:55;11.85;96.25
68257;DHT22;55069;51.568;4.656;2023-08-31T06:13:21;11.89;96.33
68257;DHT22;55069;51.568;4.656;2023-08-31T06:15:47;11.95;96.30
68257;DHT22;55069;51.568;4.656;2023-08-31T06:18:12;12.03;96.23
68257;DHT22;55069;51.568;4.656;2023-08-31T06:20:38;12.03;96.35
68257;DHT22;55069;51.568;4.656;2023-08-31T06:23:03;12.13;96.51
68257;DHT22;55069;51.568;4.656;2023-08-31T06:25:29;12.22;96.53
68257;DHT22;55069;51.568;4.656;2023-08-31T06:27:54;12.20;96.26
68257;DHT22;55069;51.568;4.656;2023-08-31T06:30:20;12.29;96.16
68257;DHT22;55069;51.568;4.656;2023-08-31T06:32:47;12.41;96.50
68257;DHT22;55069;51.568;4.656;2023-08-31T06:35:14;12.51;96.57
68257;DHT22;55069;51.568;4.656;2023-08-31T06:37:41;12.60;96.80
68257;DHT22;55069;51.568;4.656;2023-08-31T06:40:07;12.72;96.62
68257;DHT22;55069;51.568;4.656;2023-08-31T06:42:36;12.85;96.85
68257;DHT22;55069;51.568;4.656;2023-08-31T06:45:06;12.93;96.90
68257;DHT22;55069;51.568;4.656;2023-08-31T06:47:32;13.02;96.83
68257;DHT22;55069;51.568;4.656;2023-08-31T06:49:59;13.08;96.84
68257;DHT22;55069;51.568;4.656;2023-08-31T06:52:27;13.15;96.66
68257;DHT22;55069;51.568;4.656;2023-08-31T06:54:53;13.22;96.73
68257;DHT22;55069;51.568;4.656;2023-08-31T06:57:21;13.29;96.88
68257;DHT22;55069;51.568;4.656;2023-08-31T06:59:47;13.39;96.89
68257;DHT22;55069;51.568;4.656;2023-08-31T07:02:13;13.48;96.65
68257;DHT22;55069;51.568;4.656;2023-08-31T07:04:39;13.56;96.48
68257;DHT22;55069;51.568;4.656;2023-08-31T07:07:05;13.58;96.18
68257;DHT22;55069;51.568;4.656;2023-08-31T07:09:30;13.61;96.10
68257;DHT22;55069;51.568;4.656;2023-08-31T07:11:56;13.73;96.10
68257;DHT22;55069;51.568;4.656;2023-08-31T07:14:23;13.75;95.60
68257;DHT22;55069;51.568;4.656;2023-08-31T07:16:49;13.87;95.98
68257;DHT22;55069;51.568;4.656;2023-08-31T07:19:15;13.91;95.67
68257;DHT22;55069;51.568;4.656;2023-08-31T07:21:41;14.00;95.71
68257;DHT22;55069;51.568;4.656;2023-08-31T07:24:06;14.05;94.71
68257;DHT22;55069;51.568;4.656;2023-08-31T07:26:32;14.14;94.70
68257;DHT22;55069;51.568;4.656;2023-08-31T07:28:58;14.23;94.11
68257;DHT22;55069;51.568;4.656;2023-08-31T07:31:23;14.32;94.13
68257;DHT22;55069;51.568;4.656;2023-08-31T07:33:49;14.42;93.96
68257;DHT22;55069;51.568;4.656;2023-08-31T07:36:14;14.46;93.73
68257;DHT22;55069;51.568;4.656;2023-08-31T07:38:40;14.52;93.38
68257;DHT22;55069;51.568;4.656;2023-08-31T07:41:06;14.61;93.73
68257;DHT22;55069;51.568;4.656;2023-08-31T07:43:31;14.69;93.66
68257;DHT22;55069;51.568;4.656;2023-08-31T07:45:57;14.69;92.42
68257;DHT22;55069;51.568;4.656;2023-08-31T07:48:23;14.79;92.76
68257;DHT22;55069;51.568;4.656;2023-08-31T07:50:48;14.92;93.16
68257;DHT22;55069;51.568;4.656;2023-08-31T07:53:14;15.08;92.53
68257;DHT22;55069;51.568;4.656;2023-08-31T07:55:40;15.15;92.53
68257;DHT22;55069;51.568;4.656;2023-08-31T07:58:06;15.28;92.48
68257;DHT22;55069;51.568;4.656;2023-08-31T08:00:31;15.38;92.27
68257;DHT22;55069;51.568;4.656;2023-08-31T08:02:57;15.46;91.74
68257;DHT22;55069;51.568;4.656;2023-08-31T08:05:22;15.53;90.86
68257;DHT22;55069;51.568;4.656;2023-08-31T08:07:48;15.48;89.79
68257;DHT22;55069;51.568;4.656;2023-08-31T08:10:14;15.59;90.16
68257;DHT22;55069;51.568;4.656;2023-08-31T08:12:43;15.70;90.50
68257;DHT22;55069;51.568;4.656;2023-08-31T08:15:10;15.80;90.77
68257;DHT22;55069;51.568;4.656;2023-08-31T08:17:35;15.93;90.14
68257;DHT22;55069;51.568;4.656;2023-08-31T08:20:01;16.00;89.77
68257;DHT22;55069;51.568;4.656;2023-08-31T08:22:28;16.03;88.97
68257;DHT22;55069;51.568;4.656;2023-08-31T08:24:53;16.10;88.60
68257;DHT22;55069;51.568;4.656;2023-08-31T08:27:19;16.15;88.22
68257;DHT22;55069;51.568;4.656;2023-08-31T08:29:46;16.26;88.29
68257;DHT22;55069;51.568;4.656;2023-08-31T08:32:12;16.32;87.54
68257;DHT22;55069;51.568;4.656;2023-08-31T08:34:38;16.41;87.24
68257;DHT22;55069;51.568;4.656;2023-08-31T08:37:03;16.53;88.20
68257;DHT22;55069;51.568;4.656;2023-08-31T08:39:30;16.47;85.52
68257;DHT22;55069;51.568;4.656;2023-08-31T08:41:58;16.61;85.89
68257;DHT22;55069;51.568;4.656;2023-08-31T08:44:25;16.47;84.41
68257;DHT22;55069;51.568;4.656;2023-08-31T08:46:53;16.55;84.47
68257;DHT22;55069;51.568;4.656;2023-08-31T08:49:23;16.61;84.84
68257;DHT22;55069;51.568;4.656;2023-08-31T08:51:49;16.80;84.66
68257;DHT22;55069;51.568;4.656;2023-08-31T08:54:18;16.86;82.87
68257;DHT22;55069;51.568;4.656;2023-08-31T08:56:43;17.00;82.38
68257;DHT22;55069;51.568;4.656;2023-08-31T08:59:09;17.24;82.92
68257;DHT22;55069;51.568;4.656;2023-08-31T09:01:39;17.27;81.48
68257;DHT22;55069;51.568;4.656;2023-08-31T09:04:05;17.30;81.57
68257;DHT22;55069;51.568;4.656;2023-08-31T09:06:32;17.13;81.10
68257;DHT22;55069;51.568;4.656;2023-08-31T09:08:58;17.02;81.32
68257;DHT22;55069;51.568;4.656;2023-08-31T09:11:24;17.16;82.01
68257;DHT22;55069;51.568;4.656;2023-08-31T09:13:51;17.34;82.22
68257;DHT22;55069;51.568;4.656;2023-08-31T09:16:26;17.44;82.14
68257;DHT22;55069;51.568;4.656;2023-08-31T09:18:54;17.66;82.30
68257;DHT22;55069;51.568;4.656;2023-08-31T09:21:19;18.07;81.28
68257;DHT22;55069;51.568;4.656;2023-08-31T09:23:57;18.62;80.34
68257;DHT22;55069;51.568;4.656;2023-08-31T09:26:23;18.79;77.96
68257;DHT22;55069;51.568;4.656;2023-08-31T09:28:49;18.40;73.14
68257;DHT22;55069;51.568;4.656;2023-08-31T09:31:14;18.41;75.18
68257;DHT22;55069;51.568;4.656;2023-08-31T09:33:49;18.23;74.71
68257;DHT22;55069;51.568;4.656;2023-08-31T09:36:15;17.82;75.72
68257;DHT22;55069;51.568;4.656;2023-08-31T09:38:42;17.78;76.32
68257;DHT22;55069;51.568;4.656;2023-08-31T09:41:08;17.96;76.99
68257;DHT22;55069;51.568;4.656;2023-08-31T09:43:34;18.02;76.40
68257;DHT22;55069;51.568;4.656;2023-08-31T09:46:02;17.92;74.70
68257;DHT22;55069;51.568;4.656;2023-08-31T09:48:29;18.23;75.54
68257;DHT22;55069;51.568;4.656;2023-08-31T09:50:55;18.34;73.72
68257;DHT22;55069;51.568;4.656;2023-08-31T09:53:21;18.57;72.30
68257;DHT22;55069;51.568;4.656;2023-08-31T09:55:48;18.68;72.88
68257;DHT22;55069;51.568;4.656;2023-08-31T09:58:18;19.09;72.33
68257;DHT22;55069;51.568;4.656;2023-08-31T10:00:45;19.05;72.46
68257;DHT22;55069;51.568;4.656;2023-08-31T10:03:11;19.08;72.55
68257;DHT22;55069;51.568;4.656;2023-08-31T10:05:43;19.20;74.15
68257;DHT22;55069;51.568;4.656;2023-08-31T10:08:09;19.13;73.16
68257;DHT22;55069;51.568;4.656;2023-08-31T10:10:35;18.89;72.08
68257;DHT22;55069;51.568;4.656;2023-08-31T10:13:03;18.89;69.20
68257;DHT22;55069;51.568;4.656;2023-08-31T10:15:31;19.33;69.67
68257;DHT22;55069;51.568;4.656;2023-08-31T10:17:59;19.34;69.40
68257;DHT22;55069;51.568;4.656;2023-08-31T10:20:25;19.78;69.98
68257;DHT22;55069;51.568;4.656;2023-08-31T10:22:54;19.85;64.36
68257;DHT22;55069;51.568;4.656;2023-08-31T10:25:23;20.09;65.46
68257;DHT22;55069;51.568;4.656;2023-08-31T10:27:48;20.30;66.78
68257;DHT22;55069;51.568;4.656;2023-08-31T10:38:29;19.85;63.67
68257;DHT22;55069;51.568;4.656;2023-08-31T10:46:33;19.67;66.72
68257;DHT22;55069;51.568;4.656;2023-08-31T10:49:22;19.12;65.54
68257;DHT22;55069;51.568;4.656;2023-08-31T10:51:54;18.91;65.29
68257;DHT22;55069;51.568;4.656;2023-08-31T10:59:24;18.94;66.66
68257;DHT22;55069;51.568;4.656;2023-08-31T11:01:58;18.79;68.09
68257;DHT22;55069;51.568;4.656;2023-08-31T11:04:26;18.34;71.62
68257;DHT22;55069;51.568;4.656;2023-08-31T11:07:17;17.58;75.65
68257;DHT22;55069;51.568;4.656;2023-08-31T11:09:45;17.38;77.50
68257;DHT22;55069;51.568;4.656;2023-08-31T11:12:11;17.32;79.05
68257;DHT22;55069;51.568;4.656;2023-08-31T11:14:37;17.39;77.00
68257;DHT22;55069;51.568;4.656;2023-08-31T11:17:03;17.39;76.28
68257;DHT22;55069;51.568;4.656;2023-08-31T11:19:31;17.17;75.51
68257;DHT22;55069;51.568;4.656;2023-08-31T11:21:57;17.09;75.53
68257;DHT22;55069;51.568;4.656;2023-08-31T11:24:23;16.99;77.45
68257;DHT22;55069;51.568;4.656;2023-08-31T11:26:53;16.97;77.85
68257;DHT22;55069;51.568;4.656;2023-08-31T11:29:19;17.10;79.59
68257;DHT22;55069;51.568;4.656;2023-08-31T11:31:44;17.09;78.35
68257;DHT22;55069;51.568;4.656;2023-08-31T11:34:14;17.37;78.97
68257;DHT22;55069;51.568;4.656;2023-08-31T11:36:45;17.41;78.17
68257;DHT22;55069;51.568;4.656;2023-08-31T11:39:14;17.44;76.27
68257;DHT22;55069;51.568;4.656;2023-08-31T11:41:41;17.54;76.22
68257;DHT22;55069;51.568;4.656;2023-08-31T11:44:08;17.48;76.36
68257;DHT22;55069;51.568;4.656;2023-08-31T11:46:36;17.38;76.58
68257;DHT22;55069;51.568;4.656;2023-08-31T11:49:01;17.32;80.38
68257;DHT22;55069;51.568;4.656;2023-08-31T11:51:30;17.17;80.72
68257;DHT22;55069;51.568;4.656;2023-08-31T11:53:56;16.89;81.35
68257;DHT22;55069;51.568;4.656;2023-08-31T11:56:24;16.59;81.26
68257;DHT22;55069;51.568;4.656;2023-08-31T11:58:50;16.69;82.75
68257;DHT22;55069;51.568;4.656;2023-08-31T12:01:22;16.86;83.35
68257;DHT22;55069;51.568;4.656;2023-08-31T12:03:49;16.68;80.36
68257;DHT22;55069;51.568;4.656;2023-08-31T12:06:18;16.72;80.45
68257;DHT22;55069;51.568;4.656;2023-08-31T12:08:43;16.89;81.38
68257;DHT22;55069;51.568;4.656;2023-08-31T12:11:09;17.07;80.28
68257;DHT22;55069;51.568;4.656;2023-08-31T12:13:35;17.32;80.41
68257;DHT22;55069;51.568;4.656;2023-08-31T12:16:00;17.38;79.94
68257;DHT22;55069;51.568;4.656;2023-08-31T12:18:30;17.38;78.69
68257;DHT22;55069;51.568;4.656;2023-08-31T12:20:59;17.64;80.26
68257;DHT22;55069;51.568;4.656;2023-08-31T12:23:25;17.86;79.45
68257;DHT22;55069;51.568;4.656;2023-08-31T12:25:52;18.12;77.97
68257;DHT22;55069;51.568;4.656;2023-08-31T12:28:19;18.38;76.43
68257;DHT22;55069;51.568;4.656;2023-08-31T12:30:49;18.57;75.92
68257;DHT22;55069;51.568;4.656;2023-08-31T12:33:16;18.89;74.77
68257;DHT22;55069;51.568;4.656;2023-08-31T12:35:43;19.19;74.77
68257;DHT22;55069;51.568;4.656;2023-08-31T12:38:08;19.54;73.71
68257;DHT22;55069;51.568;4.656;2023-08-31T12:40:34;19.74;72.24
68257;DHT22;55069;51.568;4.656;2023-08-31T12:42:59;20.13;72.41
68257;DHT22;55069;51.568;4.656;2023-08-31T12:45:25;20.44;70.94
68257;DHT22;55069;51.568;4.656;2023-08-31T12:47:50;20.63;71.00
68257;DHT22;55069;51.568;4.656;2023-08-31T12:50:16;20.63;67.42
68257;DHT22;55069;51.568;4.656;2023-08-31T12:52:42;20.54;68.14
68257;DHT22;55069;51.568;4.656;2023-08-31T12:55:15;20.12;67.93
68257;DHT22;55069;51.568;4.656;2023-08-31T12:57:41;19.82;68.07
68257;DHT22;55069;51.568;4.656;2023-08-31T13:00:07;19.82;65.53
68257;DHT22;55069;51.568;4.656;2023-08-31T13:02:40;19.58;66.65
68257;DHT22;55069;51.568;4.656;2023-08-31T13:05:07;19.45;67.70
68257;DHT22;55069;51.568;4.656;2023-08-31T13:07:35;19.43;67.39
68257;DHT22;55069;51.568;4.656;2023-08-31T13:10:01;19.36;67.84
68257;DHT22;55069;51.568;4.656;2023-08-31T13:12:31;19.20;68.20
68257;DHT22;55069;51.568;4.656;2023-08-31T13:14:57;19.05;67.88
68257;DHT22;55069;51.568;4.656;2023-08-31T13:17:23;18.99;68.17
68257;DHT22;55069;51.568;4.656;2023-08-31T13:19:52;19.02;70.37
68257;DHT22;55069;51.568;4.656;2023-08-31T13:22:18;18.95;67.98
68257;DHT22;55069;51.568;4.656;2023-08-31T13:24:43;18.88;69.65
68257;DHT22;55069;51.568;4.656;2023-08-31T13:27:09;18.89;69.41
68257;DHT22;55069;51.568;4.656;2023-08-31T13:29:34;18.96;69.04
68257;DHT22;55069;51.568;4.656;2023-08-31T13:32:00;18.92;68.26
68257;DHT22;55069;51.568;4.656;2023-08-31T13:34:26;18.99;68.48
68257;DHT22;55069;51.568;4.656;2023-08-31T13:36:51;19.05;69.58
68257;DHT22;55069;51.568;4.656;2023-08-31T13:39:17;18.95;69.90
68257;DHT22;55069;51.568;4.656;2023-08-31T13:41:42;19.02;70.22
68257;DHT22;55069;51.568;4.656;2023-08-31T13:44:08;18.98;70.33
68257;DHT22;55069;51.568;4.656;2023-08-31T13:46:33;18.71;68.25
68257;DHT22;55069;51.568;4.656;2023-08-31T13:48:59;18.62;69.26
68257;DHT22;55069;51.568;4.656;2023-08-31T13:51:27;18.55;69.21
68257;DHT22;55069;51.568;4.656;2023-08-31T13:53:52;18.50;69.36
68257;DHT22;55069;51.568;4.656;2023-08-31T13:56:18;18.54;70.42
68257;DHT22;55069;51.568;4.656;2023-08-31T13:58:43;18.60;69.77
68257;DHT22;55069;51.568;4.656;2023-08-31T14:01:09;18.67;69.34
68257;DHT22;55069;51.568;4.656;2023-08-31T14:03:34;19.00;69.56
68257;DHT22;55069;51.568;4.656;2023-08-31T14:06:00;19.47;68.37
68257;DHT22;55069;51.568;4.656;2023-08-31T14:08:26;19.74;67.77
68257;DHT22;55069;51.568;4.656;2023-08-31T14:10:53;19.82;66.96
68257;DHT22;55069;51.568;4.656;2023-08-31T14:13:19;19.84;67.96
68257;DHT22;55069;51.568;4.656;2023-08-31T14:15:45;19.85;67.88
68257;DHT22;55069;51.568;4.656;2023-08-31T14:18:12;19.74;66.70
68257;DHT22;55069;51.568;4.656;2023-08-31T14:20:38;19.70;66.93
68257;DHT22;55069;51.568;4.656;2023-08-31T14:23:04;19.71;66.74
68257;DHT22;55069;51.568;4.656;2023-08-31T14:25:36;19.67;67.22
68257;DHT22;55069;51.568;4.656;2023-08-31T14:28:04;19.53;67.33
68257;DHT22;55069;51.568;4.656;2023-08-31T14:30:30;19.43;66.81
68257;DHT22;55069;51.568;4.656;2023-08-31T14:32:56;19.51;68.79
68257;DHT22;55069;51.568;4.656;2023-08-31T14:35:22;19.68;66.94
68257;DHT22;55069;51.568;4.656;2023-08-31T14:37:47;19.94;68.50
68257;DHT22;55069;51.568;4.656;2023-08-31T14:40:13;19.95;67.22
68257;DHT22;55069;51.568;4.656;2023-08-31T14:42:39;19.86;69.29
68257;DHT22;55069;51.568;4.656;2023-08-31T14:45:06;19.88;68.76
68257;DHT22;55069;51.568;4.656;2023-08-31T14:47:32;19.81;68.94
68257;DHT22;55069;51.568;4.656;2023-08-31T14:49:57;19.73;67.92
68257;DHT22;55069;51.568;4.656;2023-08-31T14:52:23;19.61;68.32
68257;DHT22;55069;51.568;4.656;2023-08-31T14:54:49;19.73;69.54
68257;DHT22;55069;51.568;4.656;2023-08-31T14:57:15;19.67;68.12
68257;DHT22;55069;51.568;4.656;2023-08-31T14:59:41;19.75;68.38
68257;DHT22;55069;51.568;4.656;2023-08-31T15:02:07;20.02;68.60
68257;DHT22;55069;51.568;4.656;2023-08-31T15:04:33;20.06;67.21
68257;DHT22;55069;51.568;4.656;2023-08-31T15:06:58;19.89;66.75
68257;DHT22;55069;51.568;4.656;2023-08-31T15:09:24;19.85;67.32
68257;DHT22;55069;51.568;4.656;2023-08-31T15:11:51;19.61;67.70
68257;DHT22;55069;51.568;4.656;2023-08-31T15:14:16;19.77;68.19
68257;DHT22;55069;51.568;4.656;2023-08-31T15:16:42;19.45;67.35
68257;DHT22;55069;51.568;4.656;2023-08-31T15:19:07;19.50;68.10
68257;DHT22;55069;51.568;4.656;2023-08-31T15:21:34;19.33;68.13
68257;DHT22;55069;51.568;4.656;2023-08-31T15:23:59;19.40;68.19
68257;DHT22;55069;51.568;4.656;2023-08-31T15:26:25;19.54;67.82
68257;DHT22;55069;51.568;4.656;2023-08-31T15:28:51;19.64;67.51
68257;DHT22;55069;51.568;4.656;2023-08-31T15:31:17;19.53;67.78
68257;DHT22;55069;51.568;4.656;2023-08-31T15:33:42;19.43;68.08
68257;DHT22;55069;51.568;4.656;2023-08-31T15:36:11;19.50;67.84
68257;DHT22;55069;51.568;4.656;2023-08-31T15:38:37;19.58;68.46
68257;DHT22;55069;51.568;4.656;2023-08-31T15:41:05;19.71;68.71
68257;DHT22;55069;51.568;4.656;2023-08-31T15:43:32;19.71;67.42
68257;DHT22;55069;51.568;4.656;2023-08-31T15:46:01;19.79;67.87
68257;DHT22;55069;51.568;4.656;2023-08-31T15:48:27;20.04;67.48
68257;DHT22;55069;51.568;4.656;2023-08-31T15:50:57;19.81;66.45
68257;DHT22;55069;51.568;4.656;2023-08-31T15:53:24;19.88;67.42
68257;DHT22;55069;51.568;4.656;2023-08-31T15:55:51;19.73;68.61
68257;DHT22;55069;51.568;4.656;2023-08-31T15:58:17;19.66;68.40